Teuge International Airport

EHTE · Gelderland, 荷兰

罗盘
风向 的 风向 的 风向 到 风向 050° Teuge International Airport 8/26
风: 9 kt, 3 beaufort

7 kt

5 kt
改变
0 1.000 2.000 3.000 4.000 5.000
SCT 900 ft
OVC 1.100 ft
METAR EHDL 040555Z AUTO 05009KT 350V130 6000 BR SCT009 OVC011 M00/M02 Q1018 GRN

METAR Teuge International Airport - EHTE/TGE

Teuge International Airport是,荷兰中的中型机场。 该机场有一条跑道: 8/26. 该领域的国际民航组织标志是EHTE 它的国际航空运输协会代码是TGE.

这份报告是针对2022年12月4日 06:55, 当地时间在Deelen Air Base进行的。

机场观察

风向为050°,速度为9 kt。 风向在350°和130°之间变化。

可见度为6 km。

有疏云,零星散落的云朵在900 ft的高度 和 乌云密布在1.100 ft的高度。 破损或更高的上限为1.100 ft。

当前天气为薄雾。 温度为0 °C,阵风为-7 °C。 露点为-2 °C,相对湿度为87%。 海平面上的气压为1018 hPa (QNH)。

白天

今天,太阳从08:26升起,在16:25降落。 这适用于Teuge International Airport,世界夏令时可能有所不同。 当地时间与世界标准时间之间的时差为+1 小时。 当前,没有夏令时有效。

公司介绍

在这个机场,你可以找到飞行学校。 这个机场上的公司有Vliegles.nl, E-Flight Academy, Flight School Teuge 和 van de Bunte Aviation。

体会

在这个机场有飞行课程。 你可以在没有任何经验的情况下预订飞行课程。 在Teuge International Airport预订最多的飞行课程类型是Cessna flying lesson。 这些课程的价格从€ 149开始。 在这里阅读更多关于Cessna flying lesson的信息。你也可以在这个网站上进行预订。

跑道

Id 标题 侧风 逆风 侧风 %
8/26 084°-264° 5 kt 7 kt 56 %

逆风成分最大的方向会被突出显示,并用于横风计算。 这并不一定意味着这个方向在使用。

乌云

900 ft SCT 疏云,零星散落的云朵
1.100 ft OVC 乌云密布

温度 & 天气

天气 薄雾
温度 0 °C
露点 -2 °C
相对湿度 87%
风寒 -7 °C
Kp-index 1 (0-9)

白天

日出
08:26 (1:23)
中午
12:26
日落
16:26

小工具

你想在你的网站上有一个关于Teuge International Airport的当前航空天气(METAR)的小部件吗?

显示HTML代码

我们和第三方通过cookies跟踪您在我们网站上的互联网行为。如果你继续,我们认为你同意我们的饼干政策